sensor_id;sensor_type;location;lat;lon;timestamp;temperature;humidity
43338;DHT22;28933;52.492;13.434;2022-09-03T00:01:40;16.00;77.30
43338;DHT22;28933;52.492;13.434;2022-09-03T00:04:21;16.00;77.20
43338;DHT22;28933;52.492;13.434;2022-09-03T00:06:54;15.90;77.20
43338;DHT22;28933;52.492;13.434;2022-09-03T00:09:26;15.90;77.20
43338;DHT22;28933;52.492;13.434;2022-09-03T00:12:16;15.90;77.30
43338;DHT22;28933;52.492;13.434;2022-09-03T00:15:03;15.90;77.70
43338;DHT22;28933;52.492;13.434;2022-09-03T00:17:35;15.80;77.90
43338;DHT22;28933;52.492;13.434;2022-09-03T00:20:10;15.80;77.90
43338;DHT22;28933;52.492;13.434;2022-09-03T00:22:46;15.80;78.00
43338;DHT22;28933;52.492;13.434;2022-09-03T00:25:18;15.70;77.90
43338;DHT22;28933;52.492;13.434;2022-09-03T00:27:48;15.70;78.10
43338;DHT22;28933;52.492;13.434;2022-09-03T00:30:16;15.70;78.20
43338;DHT22;28933;52.492;13.434;2022-09-03T00:35:22;15.70;78.40
43338;DHT22;28933;52.492;13.434;2022-09-03T00:37:53;15.70;78.50
43338;DHT22;28933;52.492;13.434;2022-09-03T00:56:33;15.50;79.00
43338;DHT22;28933;52.492;13.434;2022-09-03T00:59:03;15.50;79.20
43338;DHT22;28933;52.492;13.434;2022-09-03T01:01:44;15.40;79.40
43338;DHT22;28933;52.492;13.434;2022-09-03T01:04:23;15.40;79.40
43338;DHT22;28933;52.492;13.434;2022-09-03T01:07:03;15.40;79.50
43338;DHT22;28933;52.492;13.434;2022-09-03T01:09:52;15.40;79.60
43338;DHT22;28933;52.492;13.434;2022-09-03T01:12:45;15.30;79.60
43338;DHT22;28933;52.492;13.434;2022-09-03T01:18:22;15.30;79.70
43338;DHT22;28933;52.492;13.434;2022-09-03T01:24:14;15.30;79.90
43338;DHT22;28933;52.492;13.434;2022-09-03T01:27:02;15.20;79.90
43338;DHT22;28933;52.492;13.434;2022-09-03T01:29:42;15.20;80.10
43338;DHT22;28933;52.492;13.434;2022-09-03T01:35:08;15.20;80.30
43338;DHT22;28933;52.492;13.434;2022-09-03T01:38:01;15.20;80.30
43338;DHT22;28933;52.492;13.434;2022-09-03T01:40:43;15.20;80.50
43338;DHT22;28933;52.492;13.434;2022-09-03T01:43:38;15.20;80.80
43338;DHT22;28933;52.492;13.434;2022-09-03T01:46:09;15.20;80.90
43338;DHT22;28933;52.492;13.434;2022-09-03T01:51:35;15.10;81.00
43338;DHT22;28933;52.492;13.434;2022-09-03T01:54:35;15.10;81.00
43338;DHT22;28933;52.492;13.434;2022-09-03T02:00:17;15.10;81.00
43338;DHT22;28933;52.492;13.434;2022-09-03T02:02:49;15.10;81.30
43338;DHT22;28933;52.492;13.434;2022-09-03T02:05:28;15.00;81.30
43338;DHT22;28933;52.492;13.434;2022-09-03T02:07:58;15.00;81.40
43338;DHT22;28933;52.492;13.434;2022-09-03T02:10:33;15.00;81.40
43338;DHT22;28933;52.492;13.434;2022-09-03T02:13:09;15.00;81.50
43338;DHT22;28933;52.492;13.434;2022-09-03T02:15:38;15.00;81.80
43338;DHT22;28933;52.492;13.434;2022-09-03T02:18:09;14.90;81.60
43338;DHT22;28933;52.492;13.434;2022-09-03T02:20:39;14.90;81.90
43338;DHT22;28933;52.492;13.434;2022-09-03T02:23:05;14.90;81.90
43338;DHT22;28933;52.492;13.434;2022-09-03T02:25:39;14.90;81.90
43338;DHT22;28933;52.492;13.434;2022-09-03T02:28:07;14.90;82.00
43338;DHT22;28933;52.492;13.434;2022-09-03T02:30:33;14.90;82.00
43338;DHT22;28933;52.492;13.434;2022-09-03T02:32:59;14.90;82.60
43338;DHT22;28933;52.492;13.434;2022-09-03T02:35:25;14.80;82.40
43338;DHT22;28933;52.492;13.434;2022-09-03T02:37:51;14.90;82.30
43338;DHT22;28933;52.492;13.434;2022-09-03T02:40:17;14.80;82.30
43338;DHT22;28933;52.492;13.434;2022-09-03T02:42:43;14.80;82.40
43338;DHT22;28933;52.492;13.434;2022-09-03T02:45:28;14.80;82.50
43338;DHT22;28933;52.492;13.434;2022-09-03T02:47:58;14.80;82.60
43338;DHT22;28933;52.492;13.434;2022-09-03T02:50:24;14.70;82.70
43338;DHT22;28933;52.492;13.434;2022-09-03T02:52:51;14.70;82.70
43338;DHT22;28933;52.492;13.434;2022-09-03T02:55:17;14.70;82.80
43338;DHT22;28933;52.492;13.434;2022-09-03T02:57:44;14.70;82.90
43338;DHT22;28933;52.492;13.434;2022-09-03T03:00:10;14.70;82.90
43338;DHT22;28933;52.492;13.434;2022-09-03T03:02:36;14.70;83.00
43338;DHT22;28933;52.492;13.434;2022-09-03T03:05:02;14.60;83.20
43338;DHT22;28933;52.492;13.434;2022-09-03T03:07:31;14.70;83.10
43338;DHT22;28933;52.492;13.434;2022-09-03T03:09:58;14.70;83.50
43338;DHT22;28933;52.492;13.434;2022-09-03T03:12:24;14.60;83.30
43338;DHT22;28933;52.492;13.434;2022-09-03T03:14:50;14.60;83.10
43338;DHT22;28933;52.492;13.434;2022-09-03T03:17:16;14.60;83.40
43338;DHT22;28933;52.492;13.434;2022-09-03T03:19:41;14.50;83.10
43338;DHT22;28933;52.492;13.434;2022-09-03T03:22:07;14.50;83.20
43338;DHT22;28933;52.492;13.434;2022-09-03T03:24:33;14.50;83.20
43338;DHT22;28933;52.492;13.434;2022-09-03T03:26:58;14.50;83.30
43338;DHT22;28933;52.492;13.434;2022-09-03T03:29:24;14.50;83.50
43338;DHT22;28933;52.492;13.434;2022-09-03T03:31:50;14.50;83.40
43338;DHT22;28933;52.492;13.434;2022-09-03T03:34:16;14.50;83.70
43338;DHT22;28933;52.492;13.434;2022-09-03T03:36:42;14.40;83.60
43338;DHT22;28933;52.492;13.434;2022-09-03T03:39:07;14.40;83.60
43338;DHT22;28933;52.492;13.434;2022-09-03T03:41:35;14.40;84.00
43338;DHT22;28933;52.492;13.434;2022-09-03T03:44:03;14.40;84.20
43338;DHT22;28933;52.492;13.434;2022-09-03T03:46:35;14.40;84.30
43338;DHT22;28933;52.492;13.434;2022-09-03T03:49:01;14.40;84.20
43338;DHT22;28933;52.492;13.434;2022-09-03T03:51:27;14.40;84.50
43338;DHT22;28933;52.492;13.434;2022-09-03T03:53:54;14.40;84.80
43338;DHT22;28933;52.492;13.434;2022-09-03T03:56:21;14.40;84.30
43338;DHT22;28933;52.492;13.434;2022-09-03T03:58:48;14.40;84.60
43338;DHT22;28933;52.492;13.434;2022-09-03T04:01:25;14.40;84.60
43338;DHT22;28933;52.492;13.434;2022-09-03T04:03:51;14.40;84.80
43338;DHT22;28933;52.492;13.434;2022-09-03T04:06:19;14.50;84.60
43338;DHT22;28933;52.492;13.434;2022-09-03T04:08:47;14.40;84.60
43338;DHT22;28933;52.492;13.434;2022-09-03T04:11:19;14.40;85.00
43338;DHT22;28933;52.492;13.434;2022-09-03T04:13:45;14.50;84.70
43338;DHT22;28933;52.492;13.434;2022-09-03T04:16:12;14.40;84.70
43338;DHT22;28933;52.492;13.434;2022-09-03T04:18:38;14.50;84.80
43338;DHT22;28933;52.492;13.434;2022-09-03T04:21:06;14.40;84.60
43338;DHT22;28933;52.492;13.434;2022-09-03T04:23:38;14.40;84.60
43338;DHT22;28933;52.492;13.434;2022-09-03T04:26:05;14.40;85.00
43338;DHT22;28933;52.492;13.434;2022-09-03T04:28:31;14.40;85.00
43338;DHT22;28933;52.492;13.434;2022-09-03T04:31:05;14.40;85.00
43338;DHT22;28933;52.492;13.434;2022-09-03T04:33:32;14.40;85.00
43338;DHT22;28933;52.492;13.434;2022-09-03T04:38:34;14.30;85.20
43338;DHT22;28933;52.492;13.434;2022-09-03T04:41:00;14.30;85.20
43338;DHT22;28933;52.492;13.434;2022-09-03T04:43:26;14.40;85.30
43338;DHT22;28933;52.492;13.434;2022-09-03T04:46:00;14.30;85.50
43338;DHT22;28933;52.492;13.434;2022-09-03T04:48:27;14.30;85.60
43338;DHT22;28933;52.492;13.434;2022-09-03T04:50:53;14.30;85.70
43338;DHT22;28933;52.492;13.434;2022-09-03T04:53:20;14.30;85.90
43338;DHT22;28933;52.492;13.434;2022-09-03T04:55:47;14.30;86.10
43338;DHT22;28933;52.492;13.434;2022-09-03T04:58:13;14.30;86.20
43338;DHT22;28933;52.492;13.434;2022-09-03T05:00:39;14.30;86.10
43338;DHT22;28933;52.492;13.434;2022-09-03T05:03:04;14.30;86.30
43338;DHT22;28933;52.492;13.434;2022-09-03T05:05:30;14.30;86.50
43338;DHT22;28933;52.492;13.434;2022-09-03T05:07:58;14.30;86.80
43338;DHT22;28933;52.492;13.434;2022-09-03T05:10:26;14.30;86.80
43338;DHT22;28933;52.492;13.434;2022-09-03T05:13:03;14.40;87.30
43338;DHT22;28933;52.492;13.434;2022-09-03T05:15:30;14.30;87.50
43338;DHT22;28933;52.492;13.434;2022-09-03T05:17:58;14.30;87.50
43338;DHT22;28933;52.492;13.434;2022-09-03T05:20:26;14.30;87.50
43338;DHT22;28933;52.492;13.434;2022-09-03T05:22:52;14.40;87.80
43338;DHT22;28933;52.492;13.434;2022-09-03T05:25:18;14.30;87.70
43338;DHT22;28933;52.492;13.434;2022-09-03T05:27:43;14.40;88.10
43338;DHT22;28933;52.492;13.434;2022-09-03T05:30:09;14.40;88.30
43338;DHT22;28933;52.492;13.434;2022-09-03T05:32:35;14.30;88.30
43338;DHT22;28933;52.492;13.434;2022-09-03T05:35:00;14.30;88.40
43338;DHT22;28933;52.492;13.434;2022-09-03T05:37:26;14.40;88.70
43338;DHT22;28933;52.492;13.434;2022-09-03T05:39:52;14.40;88.70
43338;DHT22;28933;52.492;13.434;2022-09-03T05:42:18;14.40;88.70
43338;DHT22;28933;52.492;13.434;2022-09-03T05:44:44;14.40;89.00
43338;DHT22;28933;52.492;13.434;2022-09-03T05:47:09;14.40;89.20
43338;DHT22;28933;52.492;13.434;2022-09-03T05:49:35;14.50;89.30
43338;DHT22;28933;52.492;13.434;2022-09-03T05:52:01;14.50;89.40
43338;DHT22;28933;52.492;13.434;2022-09-03T05:54:27;14.60;89.50
43338;DHT22;28933;52.492;13.434;2022-09-03T05:56:53;14.60;89.60
43338;DHT22;28933;52.492;13.434;2022-09-03T05:59:19;14.60;89.60
43338;DHT22;28933;52.492;13.434;2022-09-03T06:01:45;14.60;89.90
43338;DHT22;28933;52.492;13.434;2022-09-03T06:04:13;14.70;90.10
43338;DHT22;28933;52.492;13.434;2022-09-03T06:06:40;14.70;90.00
43338;DHT22;28933;52.492;13.434;2022-09-03T06:09:12;14.70;90.10
43338;DHT22;28933;52.492;13.434;2022-09-03T06:11:39;14.80;90.10
43338;DHT22;28933;52.492;13.434;2022-09-03T06:14:08;14.80;90.20
43338;DHT22;28933;52.492;13.434;2022-09-03T06:16:39;14.90;90.10
43338;DHT22;28933;52.492;13.434;2022-09-03T06:19:09;14.90;90.00
43338;DHT22;28933;52.492;13.434;2022-09-03T06:21:39;15.00;90.10
43338;DHT22;28933;52.492;13.434;2022-09-03T06:24:26;15.00;90.10
43338;DHT22;28933;52.492;13.434;2022-09-03T06:26:56;15.00;90.10
43338;DHT22;28933;52.492;13.434;2022-09-03T06:29:22;15.10;90.10
43338;DHT22;28933;52.492;13.434;2022-09-03T06:31:48;15.10;90.20
43338;DHT22;28933;52.492;13.434;2022-09-03T06:34:15;15.20;90.30
43338;DHT22;28933;52.492;13.434;2022-09-03T06:36:43;15.30;90.30
43338;DHT22;28933;52.492;13.434;2022-09-03T06:39:09;15.30;90.10
43338;DHT22;28933;52.492;13.434;2022-09-03T06:41:34;15.40;90.30
43338;DHT22;28933;52.492;13.434;2022-09-03T06:44:05;15.50;90.40
43338;DHT22;28933;52.492;13.434;2022-09-03T06:46:37;15.60;90.40
43338;DHT22;28933;52.492;13.434;2022-09-03T06:49:10;15.70;90.30
43338;DHT22;28933;52.492;13.434;2022-09-03T06:51:36;15.70;90.10
43338;DHT22;28933;52.492;13.434;2022-09-03T06:54:04;15.80;90.00
43338;DHT22;28933;52.492;13.434;2022-09-03T06:56:30;15.90;89.90
43338;DHT22;28933;52.492;13.434;2022-09-03T06:58:58;15.90;89.60
43338;DHT22;28933;52.492;13.434;2022-09-03T07:01:28;16.00;89.80
43338;DHT22;28933;52.492;13.434;2022-09-03T07:03:59;16.00;90.00
43338;DHT22;28933;52.492;13.434;2022-09-03T07:06:27;16.10;89.80
43338;DHT22;28933;52.492;13.434;2022-09-03T07:08:54;16.10;89.60
43338;DHT22;28933;52.492;13.434;2022-09-03T07:11:24;16.20;89.20
43338;DHT22;28933;52.492;13.434;2022-09-03T07:13:52;16.20;89.20
43338;DHT22;28933;52.492;13.434;2022-09-03T07:16:26;16.30;89.60
43338;DHT22;28933;52.492;13.434;2022-09-03T07:18:53;16.40;89.20
43338;DHT22;28933;52.492;13.434;2022-09-03T07:21:23;16.40;89.00
43338;DHT22;28933;52.492;13.434;2022-09-03T07:23:50;16.40;88.90
43338;DHT22;28933;52.492;13.434;2022-09-03T07:26:25;16.50;89.00
43338;DHT22;28933;52.492;13.434;2022-09-03T07:28:51;16.50;89.70
43338;DHT22;28933;52.492;13.434;2022-09-03T07:31:23;16.60;89.50
43338;DHT22;28933;52.492;13.434;2022-09-03T07:33:55;16.70;89.10
43338;DHT22;28933;52.492;13.434;2022-09-03T07:36:22;16.70;89.30
43338;DHT22;28933;52.492;13.434;2022-09-03T07:38:48;16.80;88.80
43338;DHT22;28933;52.492;13.434;2022-09-03T07:41:14;16.90;88.40
43338;DHT22;28933;52.492;13.434;2022-09-03T07:43:46;17.00;88.00
43338;DHT22;28933;52.492;13.434;2022-09-03T07:46:17;17.10;87.90
43338;DHT22;28933;52.492;13.434;2022-09-03T07:48:52;17.20;87.80
43338;DHT22;28933;52.492;13.434;2022-09-03T07:51:20;17.30;87.40
43338;DHT22;28933;52.492;13.434;2022-09-03T07:53:47;17.40;87.10
43338;DHT22;28933;52.492;13.434;2022-09-03T07:56:14;17.50;87.10
43338;DHT22;28933;52.492;13.434;2022-09-03T07:58:40;17.50;86.70
43338;DHT22;28933;52.492;13.434;2022-09-03T08:01:08;17.60;87.20
43338;DHT22;28933;52.492;13.434;2022-09-03T08:03:34;17.70;87.00
43338;DHT22;28933;52.492;13.434;2022-09-03T08:06:01;17.80;86.60
43338;DHT22;28933;52.492;13.434;2022-09-03T08:08:28;17.90;86.70
43338;DHT22;28933;52.492;13.434;2022-09-03T08:10:54;17.90;85.80
43338;DHT22;28933;52.492;13.434;2022-09-03T08:13:19;17.90;85.70
43338;DHT22;28933;52.492;13.434;2022-09-03T08:15:55;18.00;85.70
43338;DHT22;28933;52.492;13.434;2022-09-03T08:18:21;18.00;85.70
43338;DHT22;28933;52.492;13.434;2022-09-03T08:20:47;18.10;85.90
43338;DHT22;28933;52.492;13.434;2022-09-03T08:23:13;18.20;85.40
43338;DHT22;28933;52.492;13.434;2022-09-03T08:25:40;18.30;84.80
43338;DHT22;28933;52.492;13.434;2022-09-03T08:28:05;18.40;84.60
43338;DHT22;28933;52.492;13.434;2022-09-03T08:30:31;18.40;84.20
43338;DHT22;28933;52.492;13.434;2022-09-03T08:33:00;18.50;84.00
43338;DHT22;28933;52.492;13.434;2022-09-03T08:35:29;18.50;83.90
43338;DHT22;28933;52.492;13.434;2022-09-03T08:37:58;18.60;83.60
43338;DHT22;28933;52.492;13.434;2022-09-03T08:40:31;18.50;83.00
43338;DHT22;28933;52.492;13.434;2022-09-03T08:43:14;18.50;83.20
43338;DHT22;28933;52.492;13.434;2022-09-03T08:45:43;18.60;83.10
43338;DHT22;28933;52.492;13.434;2022-09-03T08:48:15;18.60;83.20
43338;DHT22;28933;52.492;13.434;2022-09-03T08:50:48;18.60;83.20
43338;DHT22;28933;52.492;13.434;2022-09-03T08:53:49;18.50;82.70
43338;DHT22;28933;52.492;13.434;2022-09-03T08:56:27;18.50;82.70
43338;DHT22;28933;52.492;13.434;2022-09-03T08:58:55;18.50;82.70
43338;DHT22;28933;52.492;13.434;2022-09-03T09:07:20;18.50;82.60
43338;DHT22;28933;52.492;13.434;2022-09-03T09:12:40;18.50;82.40
43338;DHT22;28933;52.492;13.434;2022-09-03T09:15:47;18.50;82.30
43338;DHT22;28933;52.492;13.434;2022-09-03T09:21:06;18.60;82.20
43338;DHT22;28933;52.492;13.434;2022-09-03T09:23:37;18.70;82.20
43338;DHT22;28933;52.492;13.434;2022-09-03T09:26:07;18.80;82.10
43338;DHT22;28933;52.492;13.434;2022-09-03T09:28:36;18.80;81.50
43338;DHT22;28933;52.492;13.434;2022-09-03T09:31:04;18.90;81.70
43338;DHT22;28933;52.492;13.434;2022-09-03T09:33:32;19.10;81.70
43338;DHT22;28933;52.492;13.434;2022-09-03T09:36:04;19.10;81.00
43338;DHT22;28933;52.492;13.434;2022-09-03T09:38:35;19.20;80.40
43338;DHT22;28933;52.492;13.434;2022-09-03T09:41:17;19.30;79.80
43338;DHT22;28933;52.492;13.434;2022-09-03T09:43:45;19.40;79.00
43338;DHT22;28933;52.492;13.434;2022-09-03T09:46:18;19.40;79.70
43338;DHT22;28933;52.492;13.434;2022-09-03T09:48:56;19.50;79.00
43338;DHT22;28933;52.492;13.434;2022-09-03T09:51:29;19.60;78.90
43338;DHT22;28933;52.492;13.434;2022-09-03T09:54:15;19.70;78.30
43338;DHT22;28933;52.492;13.434;2022-09-03T09:56:45;19.70;78.20
43338;DHT22;28933;52.492;13.434;2022-09-03T09:59:13;19.80;77.70
43338;DHT22;28933;52.492;13.434;2022-09-03T10:01:44;19.90;76.50
43338;DHT22;28933;52.492;13.434;2022-09-03T10:04:30;19.90;75.70
43338;DHT22;28933;52.492;13.434;2022-09-03T10:07:21;20.00;75.50
43338;DHT22;28933;52.492;13.434;2022-09-03T10:09:44;20.10;73.80
43338;DHT22;28933;52.492;13.434;2022-09-03T10:12:38;20.20;74.40
43338;DHT22;28933;52.492;13.434;2022-09-03T10:15:27;20.20;73.30
43338;DHT22;28933;52.492;13.434;2022-09-03T10:18:02;20.30;72.30
43338;DHT22;28933;52.492;13.434;2022-09-03T10:28:12;20.60;70.30
43338;DHT22;28933;52.492;13.434;2022-09-03T10:30:55;20.70;70.90
43338;DHT22;28933;52.492;13.434;2022-09-03T10:33:34;20.80;70.80
43338;DHT22;28933;52.492;13.434;2022-09-03T10:36:12;20.80;70.10
43338;DHT22;28933;52.492;13.434;2022-09-03T10:38:42;20.80;69.40
43338;DHT22;28933;52.492;13.434;2022-09-03T10:55:16;21.30;69.60
43338;DHT22;28933;52.492;13.434;2022-09-03T11:00:50;21.40;69.00
43338;DHT22;28933;52.492;13.434;2022-09-03T11:03:47;21.50;68.10
43338;DHT22;28933;52.492;13.434;2022-09-03T11:06:34;21.60;68.40
43338;DHT22;28933;52.492;13.434;2022-09-03T11:09:05;21.60;67.20
43338;DHT22;28933;52.492;13.434;2022-09-03T11:11:48;21.70;66.50
43338;DHT22;28933;52.492;13.434;2022-09-03T11:17:23;21.80;65.70
43338;DHT22;28933;52.492;13.434;2022-09-03T11:19:57;21.90;65.60
43338;DHT22;28933;52.492;13.434;2022-09-03T11:22:30;21.90;65.10
43338;DHT22;28933;52.492;13.434;2022-09-03T11:24:58;22.00;64.50
43338;DHT22;28933;52.492;13.434;2022-09-03T11:30:09;22.20;65.10
43338;DHT22;28933;52.492;13.434;2022-09-03T11:35:16;22.40;63.40
43338;DHT22;28933;52.492;13.434;2022-09-03T11:38:35;22.40;63.40
43338;DHT22;28933;52.492;13.434;2022-09-03T11:45:48;22.40;63.10
43338;DHT22;28933;52.492;13.434;2022-09-03T11:48:44;22.40;62.90
43338;DHT22;28933;52.492;13.434;2022-09-03T11:51:29;22.40;62.70
43338;DHT22;28933;52.492;13.434;2022-09-03T11:56:24;22.50;62.70
43338;DHT22;28933;52.492;13.434;2022-09-03T11:59:00;22.50;61.90
43338;DHT22;28933;52.492;13.434;2022-09-03T12:01:27;22.50;61.40
43338;DHT22;28933;52.492;13.434;2022-09-03T12:03:58;22.50;61.30
43338;DHT22;28933;52.492;13.434;2022-09-03T12:09:29;22.60;60.10
43338;DHT22;28933;52.492;13.434;2022-09-03T12:19:57;22.60;59.90
43338;DHT22;28933;52.492;13.434;2022-09-03T12:22:26;22.60;59.10
43338;DHT22;28933;52.492;13.434;2022-09-03T12:25:09;22.70;59.30
43338;DHT22;28933;52.492;13.434;2022-09-03T12:27:36;22.70;59.10
43338;DHT22;28933;52.492;13.434;2022-09-03T12:30:03;22.70;59.80
43338;DHT22;28933;52.492;13.434;2022-09-03T12:32:32;22.80;59.70
43338;DHT22;28933;52.492;13.434;2022-09-03T12:35:23;22.80;59.10
43338;DHT22;28933;52.492;13.434;2022-09-03T12:37:51;22.90;60.20
43338;DHT22;28933;52.492;13.434;2022-09-03T12:40:26;23.10;59.30
43338;DHT22;28933;52.492;13.434;2022-09-03T12:42:53;23.20;58.70
43338;DHT22;28933;52.492;13.434;2022-09-03T12:45:21;23.20;58.70
43338;DHT22;28933;52.492;13.434;2022-09-03T12:47:47;23.30;58.70
43338;DHT22;28933;52.492;13.434;2022-09-03T12:50:19;23.30;56.70
43338;DHT22;28933;52.492;13.434;2022-09-03T12:58:22;23.50;57.90
43338;DHT22;28933;52.492;13.434;2022-09-03T13:01:07;23.60;57.20
43338;DHT22;28933;52.492;13.434;2022-09-03T13:03:47;23.60;56.90
43338;DHT22;28933;52.492;13.434;2022-09-03T13:06:19;23.50;56.50
43338;DHT22;28933;52.492;13.434;2022-09-03T13:08:52;23.40;56.20
43338;DHT22;28933;52.492;13.434;2022-09-03T13:11:20;23.40;56.20
43338;DHT22;28933;52.492;13.434;2022-09-03T13:13:53;23.30;56.60
43338;DHT22;28933;52.492;13.434;2022-09-03T13:27:22;23.30;57.10
43338;DHT22;28933;52.492;13.434;2022-09-03T13:30:12;23.20;56.70
43338;DHT22;28933;52.492;13.434;2022-09-03T13:32:49;23.00;56.70
43338;DHT22;28933;52.492;13.434;2022-09-03T13:35:29;23.00;56.90
43338;DHT22;28933;52.492;13.434;2022-09-03T13:43:46;22.90;57.30
43338;DHT22;28933;52.492;13.434;2022-09-03T13:46:20;22.90;57.90
43338;DHT22;28933;52.492;13.434;2022-09-03T13:48:49;23.00;57.70
43338;DHT22;28933;52.492;13.434;2022-09-03T13:51:57;23.00;56.50
43338;DHT22;28933;52.492;13.434;2022-09-03T13:54:30;23.20;57.50
43338;DHT22;28933;52.492;13.434;2022-09-03T13:57:16;23.20;56.70
43338;DHT22;28933;52.492;13.434;2022-09-03T14:00:04;23.20;56.00
43338;DHT22;28933;52.492;13.434;2022-09-03T14:05:40;23.20;57.10
43338;DHT22;28933;52.492;13.434;2022-09-03T14:08:19;23.20;56.90
43338;DHT22;28933;52.492;13.434;2022-09-03T14:14:01;23.30;56.30
43338;DHT22;28933;52.492;13.434;2022-09-03T14:17:17;23.20;55.80
43338;DHT22;28933;52.492;13.434;2022-09-03T14:19:36;23.20;55.70
43338;DHT22;28933;52.492;13.434;2022-09-03T14:22:21;23.20;55.90
43338;DHT22;28933;52.492;13.434;2022-09-03T14:24:57;23.10;56.30
43338;DHT22;28933;52.492;13.434;2022-09-03T14:27:30;23.20;56.20
43338;DHT22;28933;52.492;13.434;2022-09-03T14:30:03;23.10;56.80
43338;DHT22;28933;52.492;13.434;2022-09-03T14:32:50;23.10;56.00
43338;DHT22;28933;52.492;13.434;2022-09-03T14:41:17;23.10;57.10
43338;DHT22;28933;52.492;13.434;2022-09-03T14:44:05;23.30;57.30
43338;DHT22;28933;52.492;13.434;2022-09-03T14:46:52;23.50;56.30
43338;DHT22;28933;52.492;13.434;2022-09-03T14:49:25;23.70;55.80
43338;DHT22;28933;52.492;13.434;2022-09-03T14:52:25;23.80;56.60
43338;DHT22;28933;52.492;13.434;2022-09-03T14:58:13;23.80;54.60
43338;DHT22;28933;52.492;13.434;2022-09-03T15:00:59;23.70;54.70
43338;DHT22;28933;52.492;13.434;2022-09-03T15:03:59;23.70;54.80
43338;DHT22;28933;52.492;13.434;2022-09-03T15:14:54;23.40;55.40
43338;DHT22;28933;52.492;13.434;2022-09-03T15:17:35;23.40;55.10
43338;DHT22;28933;52.492;13.434;2022-09-03T15:20:31;23.50;55.50
43338;DHT22;28933;52.492;13.434;2022-09-03T15:31:33;23.90;54.00
43338;DHT22;28933;52.492;13.434;2022-09-03T15:36:57;23.70;54.60
43338;DHT22;28933;52.492;13.434;2022-09-03T15:39:32;23.70;54.80
43338;DHT22;28933;52.492;13.434;2022-09-03T15:42:03;23.70;55.00
43338;DHT22;28933;52.492;13.434;2022-09-03T15:44:43;23.80;54.60
43338;DHT22;28933;52.492;13.434;2022-09-03T15:53:14;23.90;53.70
43338;DHT22;28933;52.492;13.434;2022-09-03T15:55:44;23.90;53.60
43338;DHT22;28933;52.492;13.434;2022-09-03T16:01:21;23.90;53.60
43338;DHT22;28933;52.492;13.434;2022-09-03T16:03:57;23.90;53.40
43338;DHT22;28933;52.492;13.434;2022-09-03T16:06:49;24.00;53.60
43338;DHT22;28933;52.492;13.434;2022-09-03T16:14:34;23.90;53.30
43338;DHT22;28933;52.492;13.434;2022-09-03T16:17:27;23.90;53.80
43338;DHT22;28933;52.492;13.434;2022-09-03T16:20:18;23.80;53.50
43338;DHT22;28933;52.492;13.434;2022-09-03T16:23:06;23.70;53.90
43338;DHT22;28933;52.492;13.434;2022-09-03T16:25:47;23.60;53.40
43338;DHT22;28933;52.492;13.434;2022-09-03T16:28:44;23.40;53.90
43338;DHT22;28933;52.492;13.434;2022-09-03T16:31:17;23.30;54.10
43338;DHT22;28933;52.492;13.434;2022-09-03T16:37:13;23.10;54.40
43338;DHT22;28933;52.492;13.434;2022-09-03T16:42:42;23.00;56.10
43338;DHT22;28933;52.492;13.434;2022-09-03T16:56:57;22.90;55.70
43338;DHT22;28933;52.492;13.434;2022-09-03T17:05:19;22.70;55.80
43338;DHT22;28933;52.492;13.434;2022-09-03T17:08:10;22.70;56.10
43338;DHT22;28933;52.492;13.434;2022-09-03T17:19:10;22.40;56.50
43338;DHT22;28933;52.492;13.434;2022-09-03T17:27:13;22.20;56.80
43338;DHT22;28933;52.492;13.434;2022-09-03T17:35:20;22.00;57.20
43338;DHT22;28933;52.492;13.434;2022-09-03T17:39:02;22.00;57.30
43338;DHT22;28933;52.492;13.434;2022-09-03T17:46:51;21.70;57.80
43338;DHT22;28933;52.492;13.434;2022-09-03T17:49:32;21.60;58.10
43338;DHT22;28933;52.492;13.434;2022-09-03T17:52:07;21.50;58.20
43338;DHT22;28933;52.492;13.434;2022-09-03T17:54:41;21.50;58.40
43338;DHT22;28933;52.492;13.434;2022-09-03T17:59:55;21.40;58.90
43338;DHT22;28933;52.492;13.434;2022-09-03T18:05:21;21.20;59.00
43338;DHT22;28933;52.492;13.434;2022-09-03T18:07:59;21.20;59.10
43338;DHT22;28933;52.492;13.434;2022-09-03T18:16:33;21.00;59.40
43338;DHT22;28933;52.492;13.434;2022-09-03T18:19:05;21.00;59.60
43338;DHT22;28933;52.492;13.434;2022-09-03T18:21:36;20.90;59.70
43338;DHT22;28933;52.492;13.434;2022-09-03T18:24:33;20.90;60.00
43338;DHT22;28933;52.492;13.434;2022-09-03T18:27:26;20.80;59.80
43338;DHT22;28933;52.492;13.434;2022-09-03T18:30:13;20.80;59.90
43338;DHT22;28933;52.492;13.434;2022-09-03T18:32:58;20.80;60.00
43338;DHT22;28933;52.492;13.434;2022-09-03T18:35:43;20.70;60.10
43338;DHT22;28933;52.492;13.434;2022-09-03T18:38:33;20.70;60.10
43338;DHT22;28933;52.492;13.434;2022-09-03T18:41:46;20.60;60.30
43338;DHT22;28933;52.492;13.434;2022-09-03T18:44:54;20.70;60.30
43338;DHT22;28933;52.492;13.434;2022-09-03T19:02:13;20.50;60.50
43338;DHT22;28933;52.492;13.434;2022-09-03T19:05:12;20.50;60.50
43338;DHT22;28933;52.492;13.434;2022-09-03T19:10:54;20.50;60.80
43338;DHT22;28933;52.492;13.434;2022-09-03T19:13:39;20.40;60.70
43338;DHT22;28933;52.492;13.434;2022-09-03T19:16:25;20.50;60.90
43338;DHT22;28933;52.492;13.434;2022-09-03T19:22:10;20.40;61.00
43338;DHT22;28933;52.492;13.434;2022-09-03T19:25:10;20.40;60.90
43338;DHT22;28933;52.492;13.434;2022-09-03T19:34:33;20.40;61.20
43338;DHT22;28933;52.492;13.434;2022-09-03T19:40:35;20.30;61.30
43338;DHT22;28933;52.492;13.434;2022-09-03T19:43:47;20.30;61.30
43338;DHT22;28933;52.492;13.434;2022-09-03T19:46:46;20.20;61.40
43338;DHT22;28933;52.492;13.434;2022-09-03T19:55:30;20.20;61.70
43338;DHT22;28933;52.492;13.434;2022-09-03T19:58:20;20.20;61.60
43338;DHT22;28933;52.492;13.434;2022-09-03T20:01:05;20.20;61.80
43338;DHT22;28933;52.492;13.434;2022-09-03T20:03:50;20.20;62.30
43338;DHT22;28933;52.492;13.434;2022-09-03T20:06:34;20.20;62.00
43338;DHT22;28933;52.492;13.434;2022-09-03T20:09:22;20.10;61.80
43338;DHT22;28933;52.492;13.434;2022-09-03T20:12:09;20.10;62.00
43338;DHT22;28933;52.492;13.434;2022-09-03T20:14:37;20.10;62.00
43338;DHT22;28933;52.492;13.434;2022-09-03T20:20:09;20.10;62.20
43338;DHT22;28933;52.492;13.434;2022-09-03T20:23:11;20.00;62.20
43338;DHT22;28933;52.492;13.434;2022-09-03T20:26:00;20.00;62.20
43338;DHT22;28933;52.492;13.434;2022-09-03T20:28:39;20.00;62.20
43338;DHT22;28933;52.492;13.434;2022-09-03T20:34:08;20.00;62.20